createdAt,value
2019-02-19T00:00:52.719Z,100812.86
2019-02-19T00:03:20.223Z,100814.48
2019-02-19T00:05:47.327Z,100816.33
2019-02-19T00:08:14.407Z,100819.05
2019-02-19T00:10:41.614Z,100826.10
2019-02-19T00:13:08.750Z,100831.66
2019-02-19T00:15:35.913Z,100826.77
2019-02-19T00:18:03.075Z,100828.38
2019-02-19T00:20:31.296Z,100819.65
2019-02-19T00:22:58.555Z,100823.08
2019-02-19T00:25:26.074Z,100826.38
2019-02-19T00:27:53.311Z,100829.63
2019-02-19T00:30:20.475Z,100828.77
2019-02-19T00:32:47.537Z,100826.64
2019-02-19T00:35:14.726Z,100827.33
2019-02-19T00:37:41.894Z,100824.72
2019-02-19T00:40:09.045Z,100823.66
2019-02-19T00:42:36.274Z,100824.91
2019-02-19T00:45:04.034Z,100819.75
2019-02-19T00:47:31.180Z,100824.45
2019-02-19T00:49:58.264Z,100827.33
2019-02-19T00:52:25.443Z,100835.28
2019-02-19T00:54:52.553Z,100835.78
2019-02-19T00:57:19.782Z,100827.98
2019-02-19T00:59:46.944Z,100832.86
2019-02-19T01:02:14.136Z,100828.42
2019-02-19T01:04:41.352Z,100827.21
2019-02-19T01:07:08.538Z,100828.36
2019-02-19T01:09:35.737Z,100825.70
2019-02-19T01:12:03.195Z,100831.94
2019-02-19T01:14:30.424Z,100831.35
2019-02-19T01:16:57.591Z,100823.27
2019-02-19T01:19:24.790Z,100826.91
2019-02-19T01:21:51.948Z,100827.92
2019-02-19T01:24:19.136Z,100826.63
2019-02-19T01:26:46.338Z,100826.64
2019-02-19T01:29:13.493Z,100828.59
2019-02-19T01:31:40.565Z,100830.82
2019-02-19T01:34:07.747Z,100829.58
2019-02-19T01:36:35.142Z,100832.83
2019-02-19T01:39:03.425Z,100830.05
2019-02-19T01:41:30.837Z,100831.11
2019-02-19T01:43:58.539Z,100833.72
2019-02-19T01:46:26.038Z,100828.95
2019-02-19T01:48:53.209Z,100834.81
2019-02-19T01:51:20.396Z,100829.81
2019-02-19T01:53:47.545Z,100829.69
2019-02-19T01:56:14.764Z,100831.58
2019-02-19T01:58:41.940Z,100826.33
2019-02-19T02:01:09.115Z,100821.56
2019-02-19T02:03:36.315Z,100825.67
2019-02-19T02:06:03.627Z,100823.13
2019-02-19T02:08:30.809Z,100830.10
2019-02-19T02:10:58.005Z,100831.52
2019-02-19T02:13:25.097Z,100824.18
2019-02-19T02:15:52.513Z,100824.09
2019-02-19T02:18:19.899Z,100830.48
2019-02-19T02:20:46.985Z,100828.22
2019-02-19T02:23:14.433Z,100825.52
2019-02-19T02:25:41.821Z,100820.91
2019-02-19T02:28:08.999Z,100822.20
2019-02-19T02:30:36.505Z,100815.31
2019-02-19T02:33:03.688Z,100815.20
2019-02-19T02:35:30.768Z,100808.73
2019-02-19T02:37:58.183Z,100807.70
2019-02-19T02:40:25.405Z,100816.54
2019-02-19T02:42:52.494Z,100810.30
2019-02-19T02:45:19.556Z,100814.67
2019-02-19T02:47:46.620Z,100811.54
2019-02-19T02:50:14.114Z,100812.02
2019-02-19T02:52:41.262Z,100805.77
2019-02-19T02:55:08.408Z,100808.57
2019-02-19T02:57:35.564Z,100812.97
2019-02-19T03:00:02.829Z,100815.24
2019-02-19T03:02:30.106Z,100812.64
2019-02-19T03:04:57.409Z,100813.69
2019-02-19T03:07:29.269Z,100815.70
2019-02-19T03:09:56.509Z,100813.24
2019-02-19T03:12:23.690Z,100807.97
2019-02-19T03:14:50.865Z,100814.81
2019-02-19T03:17:18.014Z,100817.28
2019-02-19T03:19:45.164Z,100815.26
2019-02-19T03:22:12.379Z,100818.36
2019-02-19T03:24:40.154Z,100817.97
2019-02-19T03:27:07.333Z,100821.81
2019-02-19T03:29:35.075Z,100824.94
2019-02-19T03:32:02.255Z,100817.25
2019-02-19T03:34:29.396Z,100810.80
2019-02-19T03:36:56.824Z,100815.56
2019-02-19T03:39:24.014Z,100817.72
2019-02-19T03:41:51.088Z,100823.80
2019-02-19T03:44:18.580Z,100825.63
2019-02-19T03:46:45.770Z,100824.47
2019-02-19T03:49:12.952Z,100832.13
2019-02-19T03:51:40.478Z,100837.42
2019-02-19T03:54:07.644Z,100829.62
2019-02-19T03:56:34.918Z,100826.69
2019-02-19T03:59:02.131Z,100828.56
2019-02-19T04:01:29.301Z,100837.17
2019-02-19T04:03:56.439Z,100829.86
2019-02-19T04:06:23.629Z,100834.23
2019-02-19T04:08:50.768Z,100835.54
2019-02-19T04:11:18.050Z,100838.58
2019-02-19T04:13:45.144Z,100835.48
2019-02-19T04:16:20.813Z,100836.01
2019-02-19T04:18:41.280Z,100828.78
2019-02-19T04:21:08.477Z,100835.89
2019-02-19T04:23:35.631Z,100832.05
2019-02-19T04:26:02.801Z,100835.31
2019-02-19T04:28:30.295Z,100836.41
2019-02-19T04:30:57.460Z,100842.58
2019-02-19T04:33:24.605Z,100840.23
2019-02-19T04:35:51.731Z,100842.83
2019-02-19T04:38:18.876Z,100847.31
2019-02-19T04:40:46.055Z,100849.09
2019-02-19T04:43:13.650Z,100850.37
2019-02-19T04:45:40.888Z,100848.21
2019-02-19T04:48:07.938Z,100844.17
2019-02-19T04:50:35.294Z,100841.42
2019-02-19T04:53:02.434Z,100840.81
2019-02-19T04:55:29.693Z,100849.12
2019-02-19T04:57:56.876Z,100847.45
2019-02-19T05:00:23.948Z,100840.91
2019-02-19T05:02:51.620Z,100847.75
2019-02-19T05:05:18.768Z,100840.13
2019-02-19T05:07:45.944Z,100841.96
2019-02-19T05:10:13.150Z,100845.27
2019-02-19T05:12:40.344Z,100843.20
2019-02-19T05:15:07.824Z,100842.84
2019-02-19T05:17:34.998Z,100855.37
2019-02-19T05:20:02.180Z,100853.08
2019-02-19T05:22:29.449Z,100853.30
2019-02-19T05:24:56.628Z,100854.91
2019-02-19T05:27:23.839Z,100861.69
2019-02-19T05:29:50.990Z,100860.15
2019-02-19T05:32:18.614Z,100862.91
2019-02-19T05:34:45.795Z,100863.91
2019-02-19T05:37:12.957Z,100869.76
2019-02-19T05:39:40.127Z,100880.03
2019-02-19T05:42:07.213Z,100869.05
2019-02-19T05:44:34.398Z,100867.27
2019-02-19T05:47:01.470Z,100874.11
2019-02-19T05:49:28.635Z,100861.98
2019-02-19T05:51:55.789Z,100861.61
2019-02-19T05:54:23.074Z,100857.99
2019-02-19T05:56:50.283Z,100863.39
2019-02-19T05:59:17.620Z,100857.09
2019-02-19T06:01:44.787Z,100861.08
2019-02-19T06:04:12.029Z,100856.30
2019-02-19T06:06:39.350Z,100850.94
2019-02-19T06:09:06.805Z,100850.61
2019-02-19T06:11:35.064Z,100857.22
2019-02-19T06:14:02.232Z,100849.24
2019-02-19T06:16:29.697Z,100857.69
2019-02-19T06:18:56.934Z,100872.04
2019-02-19T06:21:24.081Z,100870.80
2019-02-19T06:23:52.789Z,100877.48
2019-02-19T06:26:20.516Z,100876.11
2019-02-19T06:28:47.597Z,100885.62
2019-02-19T06:31:14.765Z,100884.80
2019-02-19T06:33:41.970Z,100892.69
2019-02-19T06:36:09.135Z,100892.69
2019-02-19T06:38:36.308Z,100882.62
2019-02-19T06:41:03.559Z,100890.84
2019-02-19T06:43:30.860Z,100893.91
2019-02-19T06:45:58.047Z,100899.70
2019-02-19T06:48:25.237Z,100902.23
2019-02-19T06:50:52.338Z,100913.69
2019-02-19T06:53:19.624Z,100916.23
2019-02-19T06:55:46.864Z,100919.98
2019-02-19T06:58:14.006Z,100919.37
2019-02-19T07:00:41.220Z,100920.30
2019-02-19T07:03:36.945Z,100929.67
2019-02-19T07:06:04.161Z,100929.58
2019-02-19T07:08:31.340Z,100936.97
2019-02-19T07:10:58.552Z,100937.42
2019-02-19T07:13:25.781Z,100941.99
2019-02-19T07:15:52.863Z,100947.00
2019-02-19T07:18:21.193Z,100937.77
2019-02-19T07:20:48.372Z,100937.63
2019-02-19T07:23:15.552Z,100935.27
2019-02-19T07:25:43.261Z,100929.94
2019-02-19T07:28:10.420Z,100939.59
2019-02-19T07:30:37.907Z,100951.79
2019-02-19T07:33:05.092Z,100957.78
2019-02-19T07:35:32.196Z,100965.86
2019-02-19T07:37:59.403Z,100957.14
2019-02-19T07:40:26.591Z,100953.40
2019-02-19T07:42:53.756Z,100953.10
2019-02-19T07:45:21.564Z,100948.42
2019-02-19T07:47:48.922Z,100964.62
2019-02-19T07:50:16.147Z,100968.77
2019-02-19T07:52:43.253Z,100977.87
2019-02-19T07:55:10.495Z,100969.53
2019-02-19T07:57:37.578Z,100976.93
2019-02-19T08:00:04.813Z,100980.30
2019-02-19T08:02:32.020Z,100984.23
2019-02-19T08:04:59.173Z,100994.44
2019-02-19T08:07:26.360Z,101010.41
2019-02-19T08:09:53.750Z,101014.27
2019-02-19T08:12:20.904Z,101016.02
2019-02-19T08:14:48.063Z,101022.49
2019-02-19T08:17:15.175Z,101023.32
2019-02-19T08:19:42.382Z,101019.57
2019-02-19T08:22:09.533Z,101027.88
2019-02-19T08:24:36.746Z,101031.13
2019-02-19T08:27:04.258Z,101025.99
2019-02-19T08:29:31.497Z,101034.63
2019-02-19T08:31:58.851Z,101045.52
2019-02-19T08:34:25.917Z,101045.59
2019-02-19T08:36:53.135Z,101050.83
2019-02-19T08:39:20.323Z,101056.30
2019-02-19T08:41:47.487Z,101052.12
2019-02-19T08:44:14.782Z,101054.06
2019-02-19T08:46:41.969Z,101049.91
2019-02-19T08:49:09.155Z,101051.12
2019-02-19T08:51:36.363Z,101058.29
2019-02-19T08:54:03.540Z,101068.56
2019-02-19T08:56:31.056Z,101073.87
2019-02-19T08:58:58.559Z,101079.86
2019-02-19T09:01:26.626Z,101070.08
2019-02-19T09:03:53.831Z,101075.06
2019-02-19T09:06:21.030Z,101081.20
2019-02-19T09:08:48.500Z,101078.19
2019-02-19T09:11:15.709Z,101083.93
2019-02-19T09:13:42.882Z,101088.09
2019-02-19T09:16:10.146Z,101085.28
2019-02-19T09:18:37.224Z,101078.66
2019-02-19T09:21:04.628Z,101081.75
2019-02-19T09:23:31.841Z,101077.33
2019-02-19T09:25:59.303Z,101078.19
2019-02-19T09:28:26.464Z,101083.84
2019-02-19T09:30:53.872Z,101080.63
2019-02-19T09:33:21.299Z,101083.51
2019-02-19T09:35:48.366Z,101084.14
2019-02-19T09:38:15.967Z,101083.02
2019-02-19T09:40:43.148Z,101079.34
2019-02-19T09:43:10.373Z,101080.28
2019-02-19T09:45:37.585Z,101079.86
2019-02-19T09:48:04.685Z,101077.29
2019-02-19T09:50:31.755Z,101071.94
2019-02-19T09:53:00.247Z,101072.80
2019-02-19T09:55:27.643Z,101066.85
2019-02-19T09:57:54.772Z,101072.80
2019-02-19T10:00:22.008Z,101072.16
2019-02-19T10:02:49.166Z,101079.80
2019-02-19T10:05:16.646Z,101070.63
2019-02-19T10:07:43.861Z,101074.45
2019-02-19T10:10:12.759Z,101070.59
2019-02-19T10:12:39.947Z,101075.09
2019-02-19T10:15:08.469Z,101081.34
2019-02-19T10:17:35.653Z,101092.20
2019-02-19T10:20:03.201Z,101090.02
2019-02-19T10:22:30.450Z,101092.23
2019-02-19T10:24:57.705Z,101097.98
2019-02-19T10:27:24.829Z,101099.75
2019-02-19T10:29:52.055Z,101104.39
2019-02-19T10:32:19.450Z,101107.44
2019-02-19T10:34:46.624Z,101108.52
2019-02-19T10:37:13.843Z,101120.06
2019-02-19T10:39:41.043Z,101120.92
2019-02-19T10:42:08.303Z,101119.37
2019-02-19T10:44:35.396Z,101119.56
2019-02-19T10:47:02.621Z,101130.47
2019-02-19T10:49:29.826Z,101127.38
2019-02-19T10:51:57.063Z,101138.78
2019-02-19T10:54:24.231Z,101132.39
2019-02-19T10:56:51.929Z,101141.14
2019-02-19T10:59:19.135Z,101136.92
2019-02-19T11:01:46.300Z,101136.88
2019-02-19T11:04:13.515Z,101127.81
2019-02-19T11:06:40.795Z,101131.17
2019-02-19T11:09:07.964Z,101124.90
2019-02-19T11:11:35.228Z,101125.13
2019-02-19T11:14:02.477Z,101118.23
2019-02-19T11:16:29.652Z,101121.72
2019-02-19T11:18:56.815Z,101122.02
2019-02-19T11:21:24.044Z,101118.76
2019-02-19T11:23:51.257Z,101115.55
2019-02-19T11:26:18.331Z,101111.72
2019-02-19T11:28:45.561Z,101112.39
2019-02-19T11:31:12.786Z,101113.98
2019-02-19T11:33:40.260Z,101114.92
2019-02-19T11:36:07.506Z,101115.56
2019-02-19T11:38:34.698Z,101107.95
2019-02-19T11:41:01.908Z,101100.48
2019-02-19T11:43:29.197Z,101104.94
2019-02-19T11:45:56.438Z,101097.25
2019-02-19T11:48:23.649Z,101099.20
2019-02-19T11:50:50.786Z,101095.56
2019-02-19T11:53:17.960Z,101098.19
2019-02-19T11:55:45.168Z,101098.00
2019-02-19T11:58:12.431Z,101100.28
2019-02-19T12:00:40.224Z,101093.73
2019-02-19T12:03:07.294Z,101092.75
2019-02-19T12:05:34.759Z,101086.33
2019-02-19T12:08:01.868Z,101085.41
2019-02-19T12:10:29.057Z,101085.78
2019-02-19T12:12:56.321Z,101080.27
2019-02-19T12:15:23.564Z,101085.23
2019-02-19T12:17:50.925Z,101089.75
2019-02-19T12:20:26.112Z,101076.15
2019-02-19T12:22:53.339Z,101071.05
2019-02-19T12:25:20.518Z,101069.43
2019-02-19T12:27:48.043Z,101074.88
2019-02-19T12:30:15.212Z,101068.02
2019-02-19T12:32:42.420Z,101059.05
2019-02-19T12:35:09.952Z,101058.85
2019-02-19T12:37:37.107Z,101060.20
2019-02-19T12:40:04.948Z,101059.20
2019-02-19T12:42:32.178Z,101060.45
2019-02-19T12:44:59.683Z,101059.77
2019-02-19T12:47:27.196Z,101048.03
2019-02-19T12:49:54.620Z,101050.09
2019-02-19T12:52:22.071Z,101048.45
2019-02-19T12:54:49.147Z,101051.80
2019-02-19T12:57:16.496Z,101035.10
2019-02-19T12:59:43.659Z,101035.23
2019-02-19T13:02:10.824Z,101033.66
2019-02-19T13:04:38.353Z,101035.23
2019-02-19T13:07:05.910Z,101036.23
2019-02-19T13:09:33.099Z,101038.14
2019-02-19T13:12:00.343Z,101033.73
2019-02-19T13:14:27.507Z,101033.87
2019-02-19T13:16:55.003Z,101029.92
2019-02-19T13:19:22.224Z,101026.34
2019-02-19T13:21:49.429Z,101025.95
2019-02-19T13:24:16.995Z,101030.22
2019-02-19T13:26:44.432Z,101031.08
2019-02-19T13:29:11.686Z,101016.97
2019-02-19T13:31:38.793Z,101017.83
2019-02-19T13:34:06.003Z,101013.84
2019-02-19T13:36:33.154Z,101019.56
2019-02-19T13:39:00.403Z,101013.10
2019-02-19T13:41:27.955Z,101009.25
2019-02-19T13:43:55.269Z,101011.65
2019-02-19T13:46:22.492Z,101013.06
2019-02-19T13:48:49.717Z,101017.50
2019-02-19T13:51:16.875Z,101022.56
2019-02-19T13:53:52.374Z,101018.88
2019-02-19T13:56:19.558Z,101004.48
2019-02-19T13:58:46.769Z,101014.43
2019-02-19T14:01:14.327Z,101020.20
2019-02-19T14:03:41.529Z,101017.43
2019-02-19T14:06:08.640Z,101022.09
2019-02-19T14:08:35.914Z,101009.55
2019-02-19T14:11:03.143Z,101024.59
2019-02-19T14:13:30.359Z,101018.44
2019-02-19T14:16:13.940Z,101030.66
2019-02-19T14:18:46.946Z,101028.05
2019-02-19T14:21:32.421Z,101025.10
2019-02-19T14:24:25.027Z,101039.80
2019-02-19T14:27:10.139Z,101043.73
2019-02-19T14:29:57.166Z,101033.98
2019-02-19T14:32:42.571Z,101044.80
2019-02-19T14:35:27.993Z,101032.82
2019-02-19T14:38:15.567Z,101041.27
2019-02-19T14:41:00.785Z,101034.26
2019-02-19T14:43:47.822Z,101044.98
2019-02-19T14:46:33.247Z,101041.96
2019-02-19T14:49:34.103Z,101032.59
2019-02-19T14:52:11.817Z,101044.00
2019-02-19T14:54:57.312Z,101037.73
2019-02-19T14:57:51.837Z,101031.95
2019-02-19T15:00:56.850Z,101035.00
2019-02-19T15:03:44.272Z,101028.84
2019-02-19T15:06:34.225Z,101024.33
2019-02-19T15:09:19.337Z,101021.23
2019-02-19T15:12:04.580Z,101027.66
2019-02-19T15:14:43.855Z,101023.02
2019-02-19T15:17:33.300Z,101017.67
2019-02-19T15:20:38.590Z,101027.05
2019-02-19T15:23:24.101Z,101017.30
2019-02-19T15:26:13.662Z,101014.70
2019-02-19T15:28:59.379Z,101011.64
2019-02-19T15:31:58.009Z,101014.64
2019-02-19T15:34:36.861Z,101017.20
2019-02-19T15:37:33.146Z,101014.14
2019-02-19T15:40:18.246Z,101010.69
2019-02-19T15:43:03.406Z,101019.12
2019-02-19T15:45:49.033Z,101012.53
2019-02-19T15:48:34.070Z,101020.69
2019-02-19T15:51:23.488Z,101021.88
2019-02-19T15:54:19.703Z,101018.16
2019-02-19T15:57:00.933Z,101021.13
2019-02-19T15:59:46.588Z,101013.98
2019-02-19T16:02:33.418Z,101019.34
2019-02-19T16:05:29.585Z,101022.73
2019-02-19T16:08:03.888Z,101023.20
2019-02-19T16:10:43.171Z,101027.33
2019-02-19T16:13:16.238Z,101027.02
2019-02-19T16:16:03.345Z,101027.08
2019-02-19T16:18:48.672Z,101027.11
2019-02-19T16:21:33.785Z,101028.75
2019-02-19T16:24:20.588Z,101030.53
2019-02-19T16:26:56.028Z,101034.54
2019-02-19T16:29:48.617Z,101031.35
2019-02-19T16:32:40.755Z,101029.13
2019-02-19T16:35:27.693Z,101039.02
2019-02-19T16:38:02.590Z,101033.47
2019-02-19T16:41:01.210Z,101039.33
2019-02-19T16:43:50.766Z,101044.59
2019-02-19T16:46:35.961Z,101033.87
2019-02-19T16:49:25.569Z,101042.84
2019-02-19T16:52:00.352Z,101039.61
2019-02-19T16:55:05.275Z,101039.55
2019-02-19T16:57:41.062Z,101043.45
2019-02-19T17:00:29.440Z,101045.22
2019-02-19T17:03:14.806Z,101050.55
2019-02-19T17:05:57.372Z,101051.05
2019-02-19T17:08:47.673Z,101052.96
2019-02-19T17:11:23.146Z,101051.50
2019-02-19T17:14:01.304Z,101062.46
2019-02-19T17:16:59.957Z,101063.53
2019-02-19T17:19:40.162Z,101064.61
2019-02-19T17:22:42.149Z,101075.97
2019-02-19T17:25:23.448Z,101081.03
2019-02-19T17:28:19.476Z,101075.25
2019-02-19T17:31:04.718Z,101076.88
2019-02-19T17:33:50.161Z,101079.60
2019-02-19T17:36:40.006Z,101086.77
2019-02-19T17:39:41.670Z,101084.86
2019-02-19T17:42:27.067Z,101092.70
2019-02-19T17:45:01.442Z,101089.27
2019-02-19T17:47:46.566Z,101095.12
2019-02-19T17:50:38.224Z,101095.56
2019-02-19T17:53:20.679Z,101095.42
2019-02-19T17:56:01.557Z,101101.11
2019-02-19T17:58:34.550Z,101102.20
2019-02-19T18:01:33.199Z,101104.68
2019-02-19T18:04:14.276Z,101109.81
2019-02-19T18:07:11.421Z,101110.43
2019-02-19T18:10:10.646Z,101116.44
2019-02-19T18:13:00.860Z,101119.04
2019-02-19T18:15:44.697Z,101121.90
2019-02-19T18:18:27.310Z,101127.52
2019-02-19T18:20:54.368Z,101127.36
2019-02-19T18:23:21.558Z,101132.92
2019-02-19T18:25:48.725Z,101130.30
2019-02-19T18:28:15.949Z,101129.33
2019-02-19T18:30:45.144Z,101130.38
2019-02-19T18:33:12.292Z,101137.39
2019-02-19T18:35:39.677Z,101126.60
2019-02-19T18:38:06.866Z,101130.27
2019-02-19T18:40:34.030Z,101135.61
2019-02-19T18:43:01.238Z,101141.20
2019-02-19T18:45:28.429Z,101139.42
2019-02-19T18:47:55.922Z,101135.59
2019-02-19T18:50:23.120Z,101145.79
2019-02-19T18:52:50.316Z,101148.84
2019-02-19T18:55:17.392Z,101137.59
2019-02-19T18:57:44.599Z,101138.36
2019-02-19T19:00:11.794Z,101141.94
2019-02-19T19:02:38.988Z,101144.33
2019-02-19T19:05:06.287Z,101147.92
2019-02-19T19:07:33.617Z,101147.86
2019-02-19T19:10:00.811Z,101151.72
2019-02-19T19:12:28.153Z,101153.56
2019-02-19T19:14:55.341Z,101159.75
2019-02-19T19:17:22.471Z,101162.78
2019-02-19T19:19:49.731Z,101166.73
2019-02-19T19:22:16.909Z,101163.22
2019-02-19T19:24:44.166Z,101167.84
2019-02-19T19:27:11.353Z,101167.52
2019-02-19T19:29:38.541Z,101177.70
2019-02-19T19:32:06.113Z,101176.93
2019-02-19T19:34:33.313Z,101175.30
2019-02-19T19:37:00.419Z,101191.98
2019-02-19T19:39:27.612Z,101189.48
2019-02-19T19:41:54.763Z,101192.95
2019-02-19T19:44:21.977Z,101190.00
2019-02-19T19:46:49.211Z,101195.22
2019-02-19T19:49:16.476Z,101200.67
2019-02-19T19:51:43.708Z,101202.98
2019-02-19T19:54:10.895Z,101200.73
2019-02-19T19:56:38.104Z,101204.39
2019-02-19T19:59:05.275Z,101206.23
2019-02-19T20:01:32.511Z,101212.68
2019-02-19T20:03:59.685Z,101213.73
2019-02-19T20:06:26.902Z,101216.55
2019-02-19T20:08:54.086Z,101208.78
2019-02-19T20:11:21.348Z,101208.72
2019-02-19T20:13:48.841Z,101215.83
2019-02-19T20:16:16.482Z,101215.60
2019-02-19T20:18:43.694Z,101208.95
2019-02-19T20:21:10.939Z,101209.53
2019-02-19T20:23:38.045Z,101208.08
2019-02-19T20:26:05.259Z,101208.41
2019-02-19T20:28:32.494Z,101211.31
2019-02-19T20:30:59.695Z,101214.41
2019-02-19T20:33:26.891Z,101218.41
2019-02-19T20:35:53.980Z,101218.02
2019-02-19T20:38:21.218Z,101219.38
2019-02-19T20:40:49.039Z,101217.83
2019-02-19T20:43:16.936Z,101218.50
2019-02-19T20:45:44.132Z,101222.94
2019-02-19T20:48:11.568Z,101222.50
2019-02-19T20:50:38.700Z,101224.58
2019-02-19T20:53:06.269Z,101229.22
2019-02-19T20:55:36.936Z,101234.63
2019-02-19T20:58:02.655Z,101231.20
2019-02-19T21:00:29.781Z,101229.55
2019-02-19T21:02:57.289Z,101229.27
2019-02-19T21:05:24.349Z,101226.02
2019-02-19T21:07:51.590Z,101233.66
2019-02-19T21:10:18.730Z,101234.77
2019-02-19T21:12:45.955Z,101231.50
2019-02-19T21:15:13.903Z,101233.42
2019-02-19T21:17:41.122Z,101234.05
2019-02-19T21:20:08.422Z,101227.13
2019-02-19T21:22:35.632Z,101231.67
2019-02-19T21:25:02.965Z,101234.28
2019-02-19T21:27:30.197Z,101234.72
2019-02-19T21:29:57.416Z,101241.41
2019-02-19T21:32:24.648Z,101235.45
2019-02-19T21:34:51.842Z,101237.48
2019-02-19T21:37:19.211Z,101236.94
2019-02-19T21:39:46.791Z,101242.90
2019-02-19T21:42:14.051Z,101241.94
2019-02-19T21:44:41.289Z,101240.76
2019-02-19T21:47:08.772Z,101244.69
2019-02-19T21:49:36.131Z,101246.95
2019-02-19T21:52:03.371Z,101247.00
2019-02-19T21:54:30.605Z,101252.02
2019-02-19T21:56:57.854Z,101247.34
2019-02-19T21:59:25.172Z,101251.45
2019-02-19T22:01:52.476Z,101249.12
2019-02-19T22:04:20.011Z,101252.95
2019-02-19T22:06:47.278Z,101251.58
2019-02-19T22:09:14.601Z,101254.23
2019-02-19T22:11:41.958Z,101251.47
2019-02-19T22:14:09.237Z,101259.23
2019-02-19T22:16:36.516Z,101255.70
2019-02-19T22:19:04.073Z,101261.19
2019-02-19T22:21:49.535Z,101251.42
2019-02-19T22:24:33.827Z,101255.61
2019-02-19T22:27:01.221Z,101256.14
2019-02-19T22:29:28.496Z,101259.23
2019-02-19T22:31:55.742Z,101262.23
2019-02-19T22:34:22.999Z,101263.36
2019-02-19T22:36:50.193Z,101263.26
2019-02-19T22:39:17.355Z,101258.96
2019-02-19T22:41:44.611Z,101252.33
2019-02-19T22:44:12.315Z,101256.36
2019-02-19T22:46:39.822Z,101256.92
2019-02-19T22:49:07.043Z,101255.53
2019-02-19T22:51:34.192Z,101259.72
2019-02-19T22:54:19.545Z,101262.36
2019-02-19T22:56:46.861Z,101259.18
2019-02-19T22:59:14.068Z,101259.78
2019-02-19T23:02:11.010Z,101259.98
2019-02-19T23:04:38.228Z,101262.39
2019-02-19T23:07:05.652Z,101264.32
2019-02-19T23:09:32.925Z,101271.70
2019-02-19T23:12:00.091Z,101269.77
2019-02-19T23:14:27.245Z,101274.83
2019-02-19T23:16:54.508Z,101277.37
2019-02-19T23:19:24.475Z,101278.78
2019-02-19T23:21:51.661Z,101285.27
2019-02-19T23:24:18.871Z,101282.33
2019-02-19T23:26:46.038Z,101281.76
2019-02-19T23:29:13.202Z,101280.75
2019-02-19T23:31:40.335Z,101284.48
2019-02-19T23:34:07.827Z,101285.68
2019-02-19T23:36:41.922Z,101280.11
2019-02-19T23:39:09.460Z,101278.89
2019-02-19T23:41:36.548Z,101283.23
2019-02-19T23:44:03.980Z,101279.99
2019-02-19T23:46:31.164Z,101290.12
2019-02-19T23:48:58.332Z,101285.06
2019-02-19T23:51:25.540Z,101285.31
2019-02-19T23:53:52.727Z,101286.03
2019-02-19T23:56:19.886Z,101283.98
2019-02-19T23:58:47.121Z,101281.22
